createdAt,value
2024-02-24T00:02:19.789Z,1.43
2024-02-24T00:04:48.300Z,8.80
2024-02-24T00:07:16.729Z,8.37
2024-02-24T00:09:46.076Z,6.03
2024-02-24T00:12:14.602Z,9.03
2024-02-24T00:14:43.010Z,2.33
2024-02-24T00:17:12.868Z,7.90
2024-02-24T00:19:41.839Z,2.13
2024-02-24T00:22:10.279Z,1.93
2024-02-24T00:24:38.628Z,1.93
2024-02-24T00:27:07.332Z,2.43
2024-02-24T00:29:35.759Z,3.73
2024-02-24T00:32:04.165Z,3.13
2024-02-24T00:34:33.886Z,1.70
2024-02-24T00:37:02.203Z,2.10
2024-02-24T00:39:30.686Z,3.07
2024-02-24T00:41:58.903Z,1.67
2024-02-24T00:44:27.195Z,3.57
2024-02-24T00:46:55.513Z,2.50
2024-02-24T00:49:23.938Z,2.73
2024-02-24T00:51:53.627Z,2.13
2024-02-24T00:54:21.947Z,3.07
2024-02-24T00:56:50.196Z,3.17
2024-02-24T00:59:18.518Z,1.70
2024-02-24T01:01:46.900Z,4.27
2024-02-24T01:04:15.390Z,2.07
2024-02-24T01:06:44.101Z,1.50
2024-02-24T01:09:13.857Z,1.83
2024-02-24T01:11:43.655Z,1.80
2024-02-24T01:14:12.469Z,1.20
2024-02-24T01:16:41.131Z,1.27
2024-02-24T01:19:09.600Z,2.00
2024-02-24T01:21:42.864Z,0.97
2024-02-24T01:24:11.157Z,1.93
2024-02-24T01:26:40.926Z,1.00
2024-02-24T01:29:09.412Z,1.00
2024-02-24T01:31:38.145Z,0.97
2024-02-24T01:34:06.583Z,1.10
2024-02-24T01:36:35.447Z,1.73
2024-02-24T01:39:03.854Z,1.07
2024-02-24T01:41:32.225Z,1.10
2024-02-24T01:44:01.889Z,0.90
2024-02-24T01:46:32.658Z,2.20
2024-02-24T01:49:01.313Z,1.80
2024-02-24T01:51:30.147Z,1.30
2024-02-24T01:53:58.706Z,1.20
2024-02-24T01:56:27.610Z,1.40
2024-02-24T01:58:56.452Z,2.37
2024-02-24T02:01:26.142Z,2.00
2024-02-24T02:03:58.195Z,2.13
2024-02-24T02:06:30.004Z,2.03
2024-02-24T02:08:58.568Z,2.10
2024-02-24T02:11:26.856Z,2.00
2024-02-24T02:13:55.117Z,2.73
2024-02-24T02:16:23.454Z,2.00
2024-02-24T02:18:53.163Z,1.83
2024-02-24T02:21:23.020Z,2.00
2024-02-24T02:23:52.674Z,1.67
2024-02-24T02:26:21.002Z,1.53
2024-02-24T02:28:49.246Z,2.57
2024-02-24T02:31:17.712Z,1.60
2024-02-24T02:33:46.151Z,1.80
2024-02-24T02:36:14.588Z,2.70
2024-02-24T02:38:42.913Z,2.13
2024-02-24T02:41:12.816Z,2.37
2024-02-24T02:43:41.092Z,2.10
2024-02-24T02:46:09.326Z,3.03
2024-02-24T02:48:37.965Z,3.03
2024-02-24T02:51:06.606Z,2.40
2024-02-24T02:53:34.993Z,2.87
2024-02-24T02:56:03.284Z,7.57
2024-02-24T02:58:32.933Z,10.77
2024-02-24T03:01:01.316Z,3.73
2024-02-24T03:03:29.883Z,3.63
2024-02-24T03:05:58.270Z,2.77
2024-02-24T03:08:26.648Z,2.10
2024-02-24T03:10:55.023Z,2.00
2024-02-24T03:13:23.403Z,2.00
2024-02-24T03:15:52.974Z,2.23
2024-02-24T03:18:21.324Z,2.47
2024-02-24T03:20:49.809Z,2.43
2024-02-24T03:23:18.067Z,3.37
2024-02-24T03:25:46.386Z,3.13
2024-02-24T03:28:15.894Z,4.47
2024-02-24T03:30:44.176Z,2.07
2024-02-24T03:33:13.955Z,1.93
2024-02-24T03:35:42.435Z,2.40
2024-02-24T03:38:10.774Z,2.50
2024-02-24T03:40:40.348Z,3.50
2024-02-24T03:43:08.648Z,2.50
2024-02-24T03:45:37.023Z,3.07
2024-02-24T03:48:05.957Z,4.13
2024-02-24T03:50:35.678Z,3.03
2024-02-24T03:53:04.157Z,3.13
2024-02-24T03:55:32.415Z,3.73
2024-02-24T03:58:00.908Z,4.37
2024-02-24T04:00:35.993Z,2.93
2024-02-24T04:03:05.138Z,4.13
2024-02-24T04:05:33.583Z,3.87
2024-02-24T04:08:03.297Z,3.33
2024-02-24T04:10:31.707Z,3.93
2024-02-24T04:13:00.111Z,2.33
2024-02-24T04:15:29.248Z,2.40
2024-02-24T04:17:57.670Z,2.60
2024-02-24T04:20:26.039Z,4.57
2024-02-24T04:22:54.481Z,3.00
2024-02-24T04:25:24.744Z,4.27
2024-02-24T04:27:53.123Z,3.30
2024-02-24T04:30:21.519Z,3.50
2024-02-24T04:32:50.749Z,2.10
2024-02-24T04:35:19.110Z,2.80
2024-02-24T04:37:47.497Z,2.30
2024-02-24T04:40:16.154Z,2.67
2024-02-24T04:42:46.029Z,2.10
2024-02-24T04:45:14.389Z,2.73
2024-02-24T04:47:42.940Z,3.00
2024-02-24T04:50:11.957Z,1.83
2024-02-24T04:52:40.453Z,2.00
2024-02-24T04:55:09.432Z,2.67
2024-02-24T04:57:37.753Z,2.80
2024-02-24T05:00:08.953Z,1.90
2024-02-24T05:02:38.228Z,1.87
2024-02-24T05:05:07.563Z,2.00
2024-02-24T05:07:35.859Z,2.00
2024-02-24T05:10:05.693Z,2.27
2024-02-24T05:12:34.013Z,2.93
2024-02-24T05:15:02.244Z,2.10
2024-02-24T05:17:32.115Z,1.87
2024-02-24T05:20:00.472Z,2.47
2024-02-24T05:22:28.820Z,1.70
2024-02-24T05:24:57.088Z,1.80
2024-02-24T05:27:25.278Z,2.30
2024-02-24T05:29:53.732Z,2.50
2024-02-24T05:32:22.304Z,2.33
2024-02-24T05:34:52.369Z,2.10
2024-02-24T05:37:20.830Z,2.07
2024-02-24T05:39:51.534Z,1.63
2024-02-24T05:42:20.320Z,3.00
2024-02-24T05:44:48.782Z,1.73
2024-02-24T05:47:17.319Z,1.70
2024-02-24T05:49:45.712Z,2.87
2024-02-24T05:52:15.484Z,4.00
2024-02-24T05:54:44.093Z,1.93
2024-02-24T05:57:12.450Z,2.80
2024-02-24T05:59:40.730Z,6.17
2024-02-24T06:02:09.281Z,3.33
2024-02-24T06:04:37.633Z,2.87
2024-02-24T06:07:06.447Z,3.63
2024-02-24T06:09:36.190Z,1.80
2024-02-24T06:12:04.873Z,6.27
2024-02-24T06:14:33.375Z,5.20
2024-02-24T06:17:01.887Z,2.43
2024-02-24T06:19:30.288Z,2.83
2024-02-24T06:21:58.796Z,2.10
2024-02-24T06:24:27.188Z,2.50
2024-02-24T06:26:56.793Z,2.80
2024-02-24T06:29:25.181Z,1.73
2024-02-24T06:31:53.560Z,1.70
2024-02-24T06:34:22.079Z,1.90
2024-02-24T06:36:50.499Z,2.37
2024-02-24T06:39:18.822Z,1.90
2024-02-24T06:41:47.151Z,2.53
2024-02-24T06:44:17.066Z,2.57
2024-02-24T06:46:45.386Z,2.40
2024-02-24T06:49:13.814Z,1.90
2024-02-24T06:51:43.822Z,2.53
2024-02-24T06:54:12.116Z,2.20
2024-02-24T06:56:40.450Z,1.90
2024-02-24T06:59:09.042Z,2.07
2024-02-24T07:01:38.777Z,1.60
2024-02-24T07:04:07.559Z,1.63
2024-02-24T07:06:35.850Z,2.60
2024-02-24T07:09:04.385Z,1.57
2024-02-24T07:11:32.740Z,1.30
2024-02-24T07:14:01.170Z,1.60
2024-02-24T07:16:29.401Z,1.57
2024-02-24T07:19:00.090Z,1.87
2024-02-24T07:21:28.405Z,1.53
2024-02-24T07:23:56.788Z,4.10
2024-02-24T07:26:25.184Z,1.70
2024-02-24T07:28:53.678Z,2.87
2024-02-24T07:31:21.958Z,1.00
2024-02-24T07:33:50.517Z,1.03
2024-02-24T07:36:20.522Z,1.10
2024-02-24T07:38:48.949Z,0.90
2024-02-24T07:41:17.422Z,1.57
2024-02-24T07:43:45.766Z,1.07
2024-02-24T07:46:28.476Z,1.10
2024-02-24T07:48:58.114Z,1.40
2024-02-24T07:51:29.278Z,1.70
2024-02-24T07:53:58.384Z,2.00
2024-02-24T07:56:27.054Z,3.17
2024-02-24T07:58:55.440Z,1.23
2024-02-24T08:01:23.851Z,1.03
2024-02-24T08:03:52.326Z,1.50
2024-02-24T08:06:20.725Z,1.67
2024-02-24T08:08:51.505Z,1.50
2024-02-24T08:11:19.957Z,1.33
2024-02-24T08:13:48.520Z,1.40
2024-02-24T08:16:22.406Z,2.63
2024-02-24T08:18:51.279Z,2.70
2024-02-24T08:21:19.700Z,2.87
2024-02-24T08:23:48.019Z,2.60
2024-02-24T08:26:17.825Z,2.83
2024-02-24T08:28:47.385Z,1.77
2024-02-24T08:31:15.748Z,2.00
2024-02-24T08:33:44.319Z,3.10
2024-02-24T08:36:17.277Z,1.50
2024-02-24T08:38:46.198Z,1.60
2024-02-24T08:41:14.584Z,1.97
2024-02-24T08:43:44.644Z,2.87
2024-02-24T08:46:12.900Z,1.40
2024-02-24T08:48:41.163Z,2.13
2024-02-24T08:51:09.777Z,2.90
2024-02-24T08:53:38.520Z,1.60
2024-02-24T08:56:07.696Z,2.57
2024-02-24T08:58:36.331Z,1.70
2024-02-24T09:01:07.611Z,2.23
2024-02-24T09:03:36.192Z,1.70
2024-02-24T09:06:06.190Z,1.50
2024-02-24T09:08:35.299Z,1.57
2024-02-24T09:11:04.548Z,2.60
2024-02-24T09:13:33.016Z,1.93
2024-02-24T09:16:01.427Z,1.70
2024-02-24T09:18:32.651Z,2.53
2024-02-24T09:21:01.127Z,1.93
2024-02-24T09:23:29.455Z,3.20
2024-02-24T09:25:57.784Z,1.90
2024-02-24T09:28:26.107Z,3.13
2024-02-24T09:30:54.592Z,2.30
2024-02-24T09:33:23.238Z,1.93
2024-02-24T09:35:53.087Z,1.90
2024-02-24T09:38:21.469Z,1.73
2024-02-24T09:40:50.735Z,1.53
2024-02-24T09:43:19.920Z,3.10
2024-02-24T09:45:49.386Z,11.13
2024-02-24T09:48:19.368Z,1.93
2024-02-24T09:50:47.833Z,1.90
2024-02-24T09:53:17.634Z,1.60
2024-02-24T09:55:46.271Z,1.37
2024-02-24T09:58:17.166Z,1.43
2024-02-24T10:00:46.655Z,1.53
2024-02-24T10:03:15.090Z,1.63
2024-02-24T10:05:44.332Z,1.83
2024-02-24T10:08:13.569Z,2.00
2024-02-24T10:10:43.588Z,1.63
2024-02-24T10:13:11.825Z,2.50
2024-02-24T10:15:40.459Z,1.40
2024-02-24T10:18:09.264Z,2.43
2024-02-24T10:20:37.637Z,2.70
2024-02-24T10:23:06.041Z,1.50
2024-02-24T10:25:34.281Z,1.60
2024-02-24T10:28:04.455Z,2.03
2024-02-24T10:30:32.914Z,1.20
2024-02-24T10:33:02.885Z,1.37
2024-02-24T10:35:32.092Z,2.67
2024-02-24T10:38:17.292Z,1.70
2024-02-24T10:40:49.947Z,2.50
2024-02-24T10:43:22.666Z,1.70
2024-02-24T10:45:50.973Z,1.37
2024-02-24T10:48:19.710Z,2.10
2024-02-24T10:50:48.703Z,1.73
2024-02-24T10:53:21.750Z,1.70
2024-02-24T10:55:52.413Z,1.47
2024-02-24T10:58:23.459Z,1.60
2024-02-24T11:00:54.637Z,2.00
2024-02-24T11:03:23.112Z,2.23
2024-02-24T11:05:53.311Z,3.50
2024-02-24T11:08:42.403Z,3.83
2024-02-24T11:11:12.989Z,2.20
2024-02-24T11:13:59.660Z,2.10
2024-02-24T11:16:37.036Z,2.03
2024-02-24T11:19:11.771Z,2.23
2024-02-24T11:22:03.445Z,2.93
2024-02-24T11:24:33.467Z,2.83
2024-02-24T11:27:02.646Z,4.63
2024-02-24T11:29:36.393Z,1.93
2024-02-24T11:32:10.569Z,1.60
2024-02-24T11:34:38.989Z,2.50
2024-02-24T11:37:07.609Z,2.70
2024-02-24T11:39:42.875Z,1.70
2024-02-24T11:42:14.861Z,4.07
2024-02-24T11:44:47.148Z,9.40
2024-02-24T11:47:19.336Z,5.20
2024-02-24T11:49:49.761Z,2.40
2024-02-24T11:52:19.024Z,8.57
2024-02-24T11:54:47.877Z,4.40
2024-02-24T11:57:16.570Z,7.07
2024-02-24T11:59:46.204Z,6.23
2024-02-24T12:02:16.598Z,5.33
2024-02-24T12:04:44.986Z,6.00
2024-02-24T12:07:13.420Z,3.43
2024-02-24T12:09:42.305Z,4.27
2024-02-24T12:12:10.870Z,3.53
2024-02-24T12:14:39.238Z,4.20
2024-02-24T12:17:09.055Z,7.37
2024-02-24T12:19:39.140Z,6.60
2024-02-24T12:22:11.261Z,5.07
2024-02-24T12:24:39.289Z,4.37
2024-02-24T12:27:10.336Z,3.80
2024-02-24T12:29:39.414Z,2.80
2024-02-24T12:32:10.014Z,3.70
2024-02-24T12:34:38.545Z,2.57
2024-02-24T12:37:08.943Z,2.77
2024-02-24T12:39:42.556Z,2.83
2024-02-24T12:42:11.206Z,3.73
2024-02-24T12:44:39.706Z,4.43
2024-02-24T12:47:09.516Z,2.13
2024-02-24T12:49:38.300Z,2.20
2024-02-24T12:52:07.049Z,1.63
2024-02-24T12:54:35.348Z,3.63
2024-02-24T12:57:03.920Z,2.13
2024-02-24T12:59:32.385Z,1.50
2024-02-24T13:02:00.708Z,2.43
2024-02-24T13:04:30.560Z,2.63
2024-02-24T13:06:59.041Z,2.00
2024-02-24T13:09:27.759Z,1.63
2024-02-24T13:11:57.683Z,2.30
2024-02-24T13:14:26.117Z,1.97
2024-02-24T13:16:54.599Z,2.23
2024-02-24T13:19:23.002Z,3.07
2024-02-24T13:21:52.901Z,2.53
2024-02-24T13:24:21.136Z,1.80
2024-02-24T13:26:49.454Z,2.53
2024-02-24T13:29:17.958Z,2.97
2024-02-24T13:31:46.565Z,2.20
2024-02-24T13:34:15.393Z,1.90
2024-02-24T13:36:44.167Z,1.60
2024-02-24T13:39:13.849Z,3.30
2024-02-24T13:41:42.293Z,1.57
2024-02-24T13:44:13.981Z,1.87
2024-02-24T13:46:43.327Z,1.50
2024-02-24T13:49:13.174Z,3.83
2024-02-24T13:51:41.884Z,1.73
2024-02-24T13:54:10.316Z,1.93
2024-02-24T13:56:40.508Z,2.47
2024-02-24T13:59:09.049Z,1.70
2024-02-24T14:01:37.342Z,1.47
2024-02-24T14:04:05.925Z,1.90
2024-02-24T14:06:34.920Z,1.80
2024-02-24T14:09:07.682Z,2.40
2024-02-24T14:11:37.015Z,2.27
2024-02-24T14:14:07.379Z,2.40
2024-02-24T14:16:36.446Z,1.70
2024-02-24T14:19:05.038Z,2.43
2024-02-24T14:21:33.433Z,1.70
2024-02-24T14:24:04.901Z,1.60
2024-02-24T14:26:33.510Z,2.83
2024-02-24T14:29:02.875Z,1.77
2024-02-24T14:31:33.091Z,2.87
2024-02-24T14:34:01.751Z,2.77
2024-02-24T14:36:30.204Z,2.27
2024-02-24T14:39:00.997Z,2.20
2024-02-24T14:41:29.909Z,1.90
2024-02-24T14:43:57.265Z,2.10
2024-02-24T14:46:25.908Z,1.80
2024-02-24T14:48:55.852Z,2.17
2024-02-24T14:51:24.739Z,2.17
2024-02-24T14:53:53.515Z,1.70
2024-02-24T14:56:22.606Z,1.65
2024-02-24T14:58:51.026Z,1.58
2024-02-24T15:01:20.079Z,1.90
2024-02-24T15:03:48.938Z,3.42
2024-02-24T15:06:19.315Z,4.40
2024-02-24T15:08:48.200Z,1.50
2024-02-24T15:11:17.088Z,2.00
2024-02-24T15:13:45.434Z,2.00
2024-02-24T15:16:13.690Z,1.70
2024-02-24T15:18:42.060Z,3.67
2024-02-24T15:21:10.616Z,2.03
2024-02-24T15:23:40.652Z,2.27
2024-02-24T15:26:09.104Z,2.20
2024-02-24T15:28:37.519Z,1.97
2024-02-24T15:31:06.449Z,2.27
2024-02-24T15:33:34.895Z,2.30
2024-02-24T15:36:05.261Z,1.40
2024-02-24T15:38:33.639Z,1.83
2024-02-24T15:41:03.257Z,2.90
2024-02-24T15:43:31.729Z,1.40
2024-02-24T15:46:00.739Z,1.55
2024-02-24T15:48:29.294Z,1.50
2024-02-24T15:50:57.830Z,4.57
2024-02-24T15:53:27.156Z,4.57
2024-02-24T15:55:58.816Z,2.42
2024-02-24T15:58:29.001Z,5.45
2024-02-24T16:00:57.403Z,1.60
2024-02-24T16:03:27.144Z,2.20
2024-02-24T16:05:55.633Z,2.10
2024-02-24T16:08:24.425Z,2.38
2024-02-24T16:10:53.031Z,5.15
2024-02-24T16:13:21.592Z,5.95
2024-02-24T16:15:51.308Z,3.08
2024-02-24T16:18:20.038Z,3.35
2024-02-24T16:20:48.569Z,3.15
2024-02-24T16:23:17.487Z,3.30
2024-02-24T16:25:46.105Z,2.90
2024-02-24T16:28:14.683Z,3.80
2024-02-24T16:30:42.049Z,3.07
2024-02-24T16:33:11.995Z,2.30
2024-02-24T16:35:40.379Z,3.67
2024-02-24T16:38:08.700Z,1.97
2024-02-24T16:40:37.067Z,1.70
2024-02-24T16:43:06.137Z,2.20
2024-02-24T16:45:34.430Z,2.70
2024-02-24T16:48:02.949Z,2.07
2024-02-24T16:50:32.928Z,2.70
2024-02-24T16:53:01.309Z,3.60
2024-02-24T16:55:29.615Z,1.80
2024-02-24T16:57:58.365Z,3.33
2024-02-24T17:00:26.665Z,2.73
2024-02-24T17:02:54.990Z,2.80
2024-02-24T17:05:23.379Z,2.60
2024-02-24T17:07:53.086Z,3.77
2024-02-24T17:10:21.380Z,8.27
2024-02-24T17:12:49.782Z,10.90
2024-02-24T17:15:18.177Z,5.43
2024-02-24T17:17:47.597Z,4.20
2024-02-24T17:20:16.273Z,5.27
2024-02-24T17:22:44.655Z,4.93
2024-02-24T17:25:14.520Z,4.47
2024-02-24T17:27:45.918Z,4.77
2024-02-24T17:30:16.447Z,5.80
2024-02-24T17:32:44.741Z,5.00
2024-02-24T17:35:13.303Z,3.73
2024-02-24T17:37:42.767Z,4.53
2024-02-24T17:40:12.952Z,3.13
2024-02-24T17:42:43.188Z,2.47
2024-02-24T17:45:12.033Z,2.83
2024-02-24T17:47:40.605Z,2.70
2024-02-24T17:50:10.270Z,3.20
2024-02-24T17:52:38.648Z,3.27
2024-02-24T17:55:07.974Z,3.20
2024-02-24T17:57:36.474Z,3.20
2024-02-24T18:00:09.793Z,4.10
2024-02-24T18:02:40.055Z,3.77
2024-02-24T18:05:10.708Z,3.93
2024-02-24T18:07:39.572Z,3.27
2024-02-24T18:10:08.603Z,3.80
2024-02-24T18:12:37.735Z,3.27
2024-02-24T18:15:08.936Z,3.37
2024-02-24T18:17:37.363Z,2.47
2024-02-24T18:20:06.848Z,2.70
2024-02-24T18:22:35.300Z,2.07
2024-02-24T18:25:03.644Z,2.50
2024-02-24T18:27:32.070Z,3.43
2024-02-24T18:30:04.301Z,3.60
2024-02-24T18:32:35.642Z,3.73
2024-02-24T18:35:04.173Z,4.10
2024-02-24T18:37:32.496Z,2.70
2024-02-24T18:40:05.226Z,2.90
2024-02-24T18:42:33.700Z,2.63
2024-02-24T18:45:02.303Z,3.80
2024-02-24T18:47:30.918Z,2.63
2024-02-24T18:50:00.925Z,4.00
2024-02-24T18:52:31.152Z,5.00
2024-02-24T18:54:59.793Z,7.30
2024-02-24T18:57:28.721Z,5.70
2024-02-24T18:59:57.467Z,7.43
2024-02-24T19:02:25.938Z,9.77
2024-02-24T19:04:54.308Z,7.13
2024-02-24T19:07:24.083Z,6.73
2024-02-24T19:09:52.450Z,6.97
2024-02-24T19:12:20.868Z,6.90
2024-02-24T19:14:54.747Z,7.13
2024-02-24T19:17:30.057Z,7.63
2024-02-24T19:19:58.491Z,6.43
2024-02-24T19:22:28.212Z,8.83
2024-02-24T19:24:56.524Z,7.53
2024-02-24T19:27:24.815Z,7.70
2024-02-24T19:29:53.203Z,11.80
2024-02-24T19:32:21.517Z,9.03
2024-02-24T19:34:52.417Z,11.20
2024-02-24T19:37:21.212Z,12.97
2024-02-24T19:39:52.756Z,11.73
2024-02-24T19:42:21.410Z,12.63
2024-02-24T19:44:51.465Z,14.23
2024-02-24T19:47:21.899Z,14.17
2024-02-24T19:49:50.376Z,14.13
2024-02-24T19:52:21.269Z,14.77
2024-02-24T19:54:51.699Z,13.37
2024-02-24T19:57:21.652Z,12.23
2024-02-24T19:59:50.407Z,9.23
2024-02-24T20:02:18.896Z,8.17
2024-02-24T20:04:47.235Z,4.77
2024-02-24T20:07:15.853Z,4.73
2024-02-24T20:09:44.385Z,7.33
2024-02-24T20:12:14.787Z,7.60
2024-02-24T20:14:44.353Z,8.00
2024-02-24T20:17:17.671Z,9.80
2024-02-24T20:19:47.239Z,8.83
2024-02-24T20:22:17.437Z,10.77
2024-02-24T20:24:48.648Z,8.70
2024-02-24T20:27:18.243Z,7.27
2024-02-24T20:29:46.664Z,11.13
2024-02-24T20:32:15.057Z,9.20
2024-02-24T20:34:43.523Z,10.13
2024-02-24T20:37:11.955Z,11.43
2024-02-24T20:39:40.391Z,13.67
2024-02-24T20:42:11.640Z,20.60
2024-02-24T20:44:41.433Z,32.20
2024-02-24T20:47:09.700Z,11.43
2024-02-24T20:49:37.960Z,8.73
2024-02-24T20:52:06.573Z,8.23
2024-02-24T20:54:37.367Z,7.60
2024-02-24T20:57:06.290Z,8.90
2024-02-24T20:59:34.919Z,8.33
2024-02-24T21:02:04.692Z,8.50
2024-02-24T21:04:34.298Z,7.43
2024-02-24T21:07:04.493Z,7.03
2024-02-24T21:09:32.944Z,8.00
2024-02-24T21:12:01.355Z,7.33
2024-02-24T21:14:30.352Z,7.40
2024-02-24T21:16:59.129Z,7.47
2024-02-24T21:19:28.946Z,8.47
2024-02-24T21:21:58.408Z,10.03
2024-02-24T21:24:27.658Z,9.93
2024-02-24T21:26:56.096Z,7.27
2024-02-24T21:29:24.884Z,7.43
2024-02-24T21:31:55.005Z,8.60
2024-02-24T21:34:23.773Z,7.83
2024-02-24T21:36:53.490Z,7.60
2024-02-24T21:39:21.832Z,7.57
2024-02-24T21:41:50.065Z,8.40
2024-02-24T21:44:18.353Z,10.27
2024-02-24T21:46:46.620Z,10.33
2024-02-24T21:49:15.204Z,10.67
2024-02-24T21:51:44.559Z,9.37
2024-02-24T21:54:15.925Z,8.67
2024-02-24T21:56:47.567Z,9.83
2024-02-24T21:59:15.881Z,10.50
2024-02-24T22:01:44.146Z,11.27
2024-02-24T22:04:12.595Z,14.60
2024-02-24T22:06:41.136Z,11.93
2024-02-24T22:09:09.847Z,11.20
2024-02-24T22:11:39.867Z,9.90
2024-02-24T22:14:08.258Z,9.27
2024-02-24T22:16:36.559Z,9.27
2024-02-24T22:19:06.400Z,8.63
2024-02-24T22:21:34.794Z,9.63
2024-02-24T22:24:03.226Z,7.73
2024-02-24T22:26:32.635Z,9.27
2024-02-24T22:29:02.550Z,8.67
2024-02-24T22:31:30.867Z,11.07
2024-02-24T22:33:59.560Z,7.80
2024-02-24T22:36:28.390Z,7.80
2024-02-24T22:38:56.987Z,7.80
2024-02-24T22:41:25.496Z,8.47
2024-02-24T22:43:54.959Z,7.97
2024-02-24T22:46:27.019Z,9.03
2024-02-24T22:48:55.421Z,8.23
2024-02-24T22:51:26.564Z,7.70
2024-02-24T22:53:55.848Z,7.00
2024-02-24T22:56:24.274Z,5.67
2024-02-24T22:58:56.186Z,7.03
2024-02-24T23:01:26.075Z,6.97
2024-02-24T23:03:56.456Z,8.47
2024-02-24T23:06:26.317Z,7.93
2024-02-24T23:08:54.899Z,7.97
2024-02-24T23:11:30.181Z,9.40
2024-02-24T23:14:04.882Z,9.13
2024-02-24T23:16:34.574Z,7.43
2024-02-24T23:19:04.512Z,8.70
2024-02-24T23:21:36.346Z,7.80
2024-02-24T23:24:06.023Z,9.23
2024-02-24T23:26:34.861Z,9.30
2024-02-24T23:29:04.365Z,8.43
2024-02-24T23:31:34.416Z,11.07
2024-02-24T23:34:03.765Z,16.27
2024-02-24T23:36:32.922Z,17.93
2024-02-24T23:39:01.483Z,12.53
2024-02-24T23:41:31.506Z,10.60
2024-02-24T23:43:59.785Z,7.73
2024-02-24T23:46:28.185Z,9.90
2024-02-24T23:48:58.051Z,10.47
2024-02-24T23:51:26.471Z,9.20
2024-02-24T23:53:54.720Z,8.90
2024-02-24T23:56:23.683Z,10.13
2024-02-24T23:58:52.954Z,7.60
